If you wish to contribute or participate in the discussions about articles you are invited to join SKYbrary as a registered user

 Actions

Cassidy International Airport

From SKYbrary Wiki

PLCH /
Revision as of 22:18, 20 October 2014 by Timo.Kouwenhoven (talk | contribs)
(diff) ← Older revision | Latest revision (diff) | Newer revision → (diff)
Airport
ICAO: PLCH – IATA: CXI
Summary
Name Cassidy International Airport
Region Asia and Pacific
Territory Line Islands US.gif
Location Banana, Kiritimati, Kiribati
Serving Kiribati
Coordinates 1° 59' 10.00" N, 157° 20' 59.00" W
Runways
Designator Length Width Surface ROPS
8/26 2103 m6,899.606 ft
30 m98.425 ft
ASP /


METAR
Observation PLCH 230400Z 11009KT 9999 FEW020 28/22 Q1008
Station Christmas / Cassidy
Date/Time 23 August 2019 04:00:00
Wind direction 110°
Wind speed 09 kts
Lowest cloud amount few clouds
Temperature 28°C
Dew point 22°C
Humidity 69%
QNH 1008 hPa
Weather condition n/a

Description

Cassidy International Airport is an airport located north of Banana, a settlement on Kiritimati (also known as Christmas Island) in Kiribati.